createdAt,value
2023-01-25T00:01:06.339Z,19.83
2023-01-25T00:04:07.880Z,20.95
2023-01-25T00:07:09.540Z,19.60
2023-01-25T00:10:11.238Z,20.73
2023-01-25T00:13:12.789Z,20.98
2023-01-25T00:16:14.553Z,21.25
2023-01-25T00:19:16.302Z,20.80
2023-01-25T00:22:17.836Z,21.38
2023-01-25T00:25:19.403Z,21.13
2023-01-25T00:28:20.913Z,20.10
2023-01-25T00:31:53.173Z,23.42
2023-01-25T00:34:58.437Z,21.23
2023-01-25T00:38:02.648Z,19.00
2023-01-25T00:41:04.368Z,21.17
2023-01-25T00:44:06.617Z,19.38
2023-01-25T00:47:10.644Z,20.65
2023-01-25T00:50:12.236Z,19.30
2023-01-25T00:53:14.630Z,19.30
2023-01-25T00:56:16.153Z,19.15
2023-01-25T00:59:18.143Z,20.08
2023-01-25T01:02:19.779Z,21.20
2023-01-25T01:05:21.489Z,19.85
2023-01-25T01:09:00.605Z,19.63
2023-01-25T01:12:58.398Z,20.33
2023-01-25T01:16:18.475Z,19.50
2023-01-25T01:19:20.117Z,18.73
2023-01-25T01:22:22.047Z,18.55
2023-01-25T01:25:23.859Z,20.55
2023-01-25T01:28:25.412Z,18.80
2023-01-25T01:31:27.915Z,20.83
2023-01-25T01:34:39.535Z,21.80
2023-01-25T01:37:42.744Z,19.67
2023-01-25T01:40:45.623Z,19.73
2023-01-25T01:43:47.746Z,19.08
2023-01-25T01:46:59.203Z,22.50
2023-01-25T01:50:16.948Z,19.85
2023-01-25T01:53:24.312Z,22.63
2023-01-25T01:56:36.028Z,21.17
2023-01-25T01:59:56.103Z,23.83
2023-01-25T02:02:58.826Z,21.30
2023-01-25T02:06:25.113Z,23.42
2023-01-25T02:09:29.767Z,20.77
2023-01-25T02:12:32.035Z,22.05
2023-01-25T02:15:46.204Z,24.00
2023-01-25T02:18:47.934Z,24.02
2023-01-25T02:21:51.805Z,22.23
2023-01-25T02:25:22.692Z,22.13
2023-01-25T02:28:32.694Z,21.38
2023-01-25T02:31:34.432Z,23.35
2023-01-25T02:34:36.353Z,22.08
2023-01-25T02:37:38.552Z,20.63
2023-01-25T02:40:51.078Z,22.50
2023-01-25T02:43:54.598Z,22.55
2023-01-25T02:46:56.486Z,22.33
2023-01-25T02:49:58.023Z,22.95
2023-01-25T02:52:59.559Z,23.77
2023-01-25T02:56:01.677Z,20.58
2023-01-25T02:59:05.731Z,23.05
2023-01-25T03:05:10.920Z,20.88
2023-01-25T03:08:13.274Z,21.38
2023-01-25T03:11:15.515Z,24.05
2023-01-25T03:14:18.100Z,24.35
2023-01-25T03:17:19.651Z,23.52
2023-01-25T03:20:21.388Z,24.40
2023-01-25T03:23:23.066Z,23.20
2023-01-25T03:26:26.592Z,23.27
2023-01-25T03:29:43.400Z,24.73
2023-01-25T03:32:50.684Z,22.95
2023-01-25T03:35:55.544Z,24.52
2023-01-25T03:38:57.204Z,24.73
2023-01-25T03:41:58.917Z,25.40
2023-01-25T03:45:00.457Z,24.75
2023-01-25T03:48:02.754Z,24.77
2023-01-25T03:51:04.575Z,26.42
2023-01-25T03:54:08.338Z,25.42
2023-01-25T03:57:10.823Z,25.27
2023-01-25T04:00:24.545Z,24.58
2023-01-25T04:03:33.854Z,24.23
2023-01-25T04:06:35.786Z,23.88
2023-01-25T04:09:37.773Z,24.80
2023-01-25T04:12:41.007Z,24.20
2023-01-25T04:15:42.532Z,25.52
2023-01-25T04:18:53.075Z,25.42
2023-01-25T04:21:55.267Z,24.27
2023-01-25T04:24:58.487Z,22.33
2023-01-25T04:28:24.819Z,25.30
2023-01-25T04:31:26.925Z,25.15
2023-01-25T04:34:28.555Z,25.05
2023-01-25T04:37:30.364Z,24.90
2023-01-25T04:40:33.923Z,25.55
2023-01-25T04:43:35.590Z,22.38
2023-01-25T04:46:42.184Z,26.00
2023-01-25T04:49:43.759Z,23.73
2023-01-25T04:52:45.333Z,24.85
2023-01-25T04:55:47.911Z,24.67
2023-01-25T04:58:50.162Z,25.15
2023-01-25T05:01:51.713Z,23.23
2023-01-25T05:04:53.209Z,24.75
2023-01-25T05:07:55.757Z,26.52
2023-01-25T05:10:57.639Z,26.23
2023-01-25T05:14:13.312Z,25.75
2023-01-25T05:20:18.949Z,25.35
2023-01-25T05:23:21.119Z,26.02
2023-01-25T05:26:41.258Z,22.75
2023-01-25T05:29:44.738Z,25.15
2023-01-25T05:32:48.465Z,25.40
2023-01-25T05:35:50.996Z,26.10
2023-01-25T05:38:53.283Z,24.83
2023-01-25T05:41:55.132Z,25.75
2023-01-25T05:44:57.787Z,24.05
2023-01-25T05:47:59.902Z,24.95
2023-01-25T05:51:01.698Z,25.95
2023-01-25T05:54:08.370Z,24.95
2023-01-25T05:57:10.997Z,23.85
2023-01-25T06:00:16.429Z,25.10
2023-01-25T06:03:18.115Z,23.92
2023-01-25T06:06:21.186Z,25.85
2023-01-25T06:09:23.745Z,23.23
2023-01-25T06:12:26.984Z,24.02
2023-01-25T06:15:30.762Z,24.08
2023-01-25T06:18:51.572Z,24.08
2023-01-25T06:22:09.222Z,27.75
2023-01-25T06:28:12.705Z,23.20
2023-01-25T06:31:16.741Z,25.92
2023-01-25T06:37:21.580Z,24.05
2023-01-25T06:40:23.365Z,23.92
2023-01-25T06:43:25.081Z,23.88
2023-01-25T06:46:27.417Z,24.48
2023-01-25T06:49:29.017Z,23.80
2023-01-25T06:52:31.789Z,22.00
2023-01-25T06:55:33.291Z,25.33
2023-01-25T06:58:37.101Z,25.08
2023-01-25T07:01:38.796Z,24.75
2023-01-25T07:04:40.313Z,25.27
2023-01-25T07:07:46.287Z,25.95
2023-01-25T07:10:54.365Z,22.42
2023-01-25T07:13:55.832Z,23.48
2023-01-25T07:16:57.733Z,24.40
2023-01-25T07:19:59.248Z,22.15
2023-01-25T07:23:02.271Z,21.92
2023-01-25T07:26:24.123Z,25.30
2023-01-25T07:29:36.506Z,25.50
2023-01-25T07:32:38.024Z,26.83
2023-01-25T07:35:39.688Z,28.58
2023-01-25T07:38:41.315Z,24.60
2023-01-25T07:41:42.807Z,22.65
2023-01-25T07:44:47.907Z,23.60
2023-01-25T07:47:49.425Z,23.05
2023-01-25T07:51:10.921Z,23.58
2023-01-25T07:54:12.543Z,23.35
2023-01-25T07:57:15.019Z,23.52
2023-01-25T08:00:17.003Z,26.20
2023-01-25T08:03:22.085Z,24.52
2023-01-25T08:06:40.994Z,25.20
2023-01-25T08:09:42.725Z,25.30
2023-01-25T08:12:46.314Z,24.73
2023-01-25T08:15:54.707Z,25.90
2023-01-25T08:18:58.907Z,25.08
2023-01-25T08:25:02.871Z,23.73
2023-01-25T08:28:04.478Z,23.38
2023-01-25T08:31:09.243Z,22.58
2023-01-25T08:34:11.529Z,23.17
2023-01-25T08:37:13.088Z,22.20
2023-01-25T08:40:14.816Z,22.25
2023-01-25T08:43:16.288Z,20.95
2023-01-25T08:46:17.923Z,21.90
2023-01-25T08:49:19.512Z,23.27
2023-01-25T08:52:22.895Z,23.40
2023-01-25T08:55:24.450Z,23.67
2023-01-25T08:58:25.983Z,22.90
2023-01-25T09:01:27.787Z,24.48
2023-01-25T09:04:29.575Z,23.05
2023-01-25T09:07:32.452Z,23.92
2023-01-25T09:10:34.591Z,23.15
2023-01-25T09:13:36.837Z,23.92
2023-01-25T09:16:38.532Z,23.75
2023-01-25T09:19:42.074Z,22.60
2023-01-25T09:22:43.737Z,24.98
2023-01-25T09:25:45.219Z,23.00
2023-01-25T09:28:49.022Z,24.02
2023-01-25T09:31:51.001Z,24.58
2023-01-25T09:35:11.915Z,24.80
2023-01-25T09:38:13.515Z,24.15
2023-01-25T09:41:53.440Z,25.88
2023-01-25T09:45:13.066Z,25.40
2023-01-25T09:48:41.892Z,27.08
2023-01-25T09:52:05.144Z,26.98
2023-01-25T09:55:15.737Z,24.33
2023-01-25T09:58:26.220Z,24.02
2023-01-25T10:01:38.957Z,24.45
2023-01-25T10:04:44.250Z,23.77
2023-01-25T10:07:53.444Z,24.58
2023-01-25T10:11:16.574Z,26.08
2023-01-25T10:14:19.607Z,25.67
2023-01-25T10:17:40.414Z,24.15
2023-01-25T10:20:54.964Z,22.85
2023-01-25T10:27:33.241Z,24.75
2023-01-25T10:30:43.192Z,24.33
2023-01-25T10:33:47.604Z,24.08
2023-01-25T10:36:54.966Z,24.25
2023-01-25T10:40:03.134Z,23.30
2023-01-25T10:43:11.739Z,23.13
2023-01-25T10:46:21.752Z,24.70
2023-01-25T10:49:29.249Z,22.92
2023-01-25T10:52:32.758Z,24.92
2023-01-25T10:55:34.375Z,24.67
2023-01-25T10:58:37.777Z,25.40
2023-01-25T11:01:39.385Z,23.83
2023-01-25T11:04:43.058Z,24.65
2023-01-25T11:07:46.610Z,22.70
2023-01-25T11:10:48.617Z,24.05
2023-01-25T11:13:50.455Z,22.98
2023-01-25T11:16:52.765Z,22.63
2023-01-25T11:20:20.786Z,24.20
2023-01-25T11:23:26.636Z,24.48
2023-01-25T11:26:28.838Z,23.90
2023-01-25T11:29:30.439Z,25.00
2023-01-25T11:32:32.460Z,24.17
2023-01-25T11:35:36.449Z,23.40
2023-01-25T11:38:44.367Z,22.13
2023-01-25T11:42:07.375Z,21.70
2023-01-25T11:45:38.476Z,21.52
2023-01-25T11:48:57.815Z,20.95
2023-01-25T11:52:15.616Z,21.10
2023-01-25T11:55:27.087Z,21.27
2023-01-25T11:58:38.639Z,21.38
2023-01-25T12:02:07.145Z,19.85
2023-01-25T12:05:51.951Z,21.70
2023-01-25T12:09:28.929Z,19.55
2023-01-25T12:12:45.851Z,18.70
2023-01-25T12:16:06.501Z,19.40
2023-01-25T12:19:38.658Z,18.63
2023-01-25T12:22:59.217Z,19.33
2023-01-25T12:26:09.533Z,18.38
2023-01-25T12:29:32.454Z,19.63
2023-01-25T12:32:41.169Z,17.02
2023-01-25T12:36:06.700Z,17.08
2023-01-25T12:39:25.241Z,17.92
2023-01-25T12:42:36.254Z,17.27
2023-01-25T12:45:38.543Z,17.17
2023-01-25T12:48:47.544Z,17.58
2023-01-25T12:51:50.877Z,16.90
2023-01-25T12:54:56.957Z,17.97
2023-01-25T12:58:26.462Z,18.90
2023-01-25T13:01:41.211Z,17.92
2023-01-25T13:04:56.098Z,18.20
2023-01-25T13:08:30.308Z,17.83
2023-01-25T13:11:39.809Z,17.02
2023-01-25T13:14:41.727Z,17.60
2023-01-25T13:17:43.335Z,17.50
2023-01-25T13:20:49.595Z,18.05
2023-01-25T13:24:12.135Z,18.10
2023-01-25T13:27:26.234Z,17.67
2023-01-25T13:30:34.185Z,14.90
2023-01-25T13:33:36.322Z,18.23
2023-01-25T13:36:40.664Z,17.60
2023-01-25T13:39:54.083Z,17.27
2023-01-25T13:43:03.714Z,17.58
2023-01-25T13:46:08.199Z,18.45
2023-01-25T13:49:21.120Z,17.45
2023-01-25T13:52:24.392Z,18.10
2023-01-25T13:55:27.114Z,17.67
2023-01-25T13:58:34.560Z,18.20
2023-01-25T14:01:36.897Z,18.33
2023-01-25T14:04:38.568Z,18.75
2023-01-25T14:07:45.398Z,19.20
2023-01-25T14:10:48.113Z,18.05
2023-01-25T14:14:21.232Z,16.88
2023-01-25T14:17:23.727Z,18.13
2023-01-25T14:20:25.453Z,17.63
2023-01-25T14:23:29.264Z,18.80
2023-01-25T14:26:38.208Z,17.48
2023-01-25T14:29:40.165Z,17.75
2023-01-25T14:32:42.203Z,19.13
2023-01-25T14:36:11.591Z,17.73
2023-01-25T14:39:16.800Z,18.60
2023-01-25T14:42:19.097Z,18.17
2023-01-25T14:45:23.995Z,18.13
2023-01-25T14:48:42.086Z,19.20
2023-01-25T14:51:53.696Z,18.02
2023-01-25T14:54:58.621Z,18.63
2023-01-25T14:58:01.418Z,17.50
2023-01-25T15:01:03.325Z,18.30
2023-01-25T15:04:11.169Z,18.48
2023-01-25T15:07:43.064Z,17.48
2023-01-25T15:10:51.554Z,18.05
2023-01-25T15:14:01.951Z,18.35
2023-01-25T15:17:03.766Z,19.83
2023-01-25T15:20:05.681Z,20.23
2023-01-25T15:23:28.098Z,20.27
2023-01-25T15:26:31.520Z,20.30
2023-01-25T15:29:33.055Z,18.08
2023-01-25T15:32:34.668Z,19.75
2023-01-25T15:35:36.210Z,19.15
2023-01-25T15:38:37.829Z,18.58
2023-01-25T15:41:39.416Z,17.58
2023-01-25T15:44:40.945Z,18.50
2023-01-25T15:47:42.438Z,20.17
2023-01-25T15:50:44.219Z,19.02
2023-01-25T15:53:46.753Z,19.45
2023-01-25T15:56:54.241Z,19.80
2023-01-25T15:59:56.971Z,17.95
2023-01-25T16:02:58.597Z,18.02
2023-01-25T16:06:03.898Z,18.83
2023-01-25T16:09:26.922Z,19.73
2023-01-25T16:12:28.531Z,17.42
2023-01-25T16:15:30.118Z,17.10
2023-01-25T16:18:31.737Z,17.13
2023-01-25T16:21:33.302Z,20.35
2023-01-25T16:24:34.861Z,18.10
2023-01-25T16:27:36.494Z,21.08
2023-01-25T16:30:38.098Z,19.20
2023-01-25T16:33:39.766Z,20.13
2023-01-25T16:36:41.471Z,18.88
2023-01-25T16:39:43.142Z,19.80
2023-01-25T16:42:44.734Z,21.17
2023-01-25T16:45:48.899Z,19.85
2023-01-25T16:52:02.443Z,19.95
2023-01-25T16:55:05.217Z,19.30
2023-01-25T16:58:06.766Z,20.25
2023-01-25T17:01:10.653Z,19.48
2023-01-25T17:04:12.869Z,20.67
2023-01-25T17:07:14.400Z,20.13
2023-01-25T17:10:16.327Z,21.60
2023-01-25T17:13:17.990Z,20.95
2023-01-25T17:16:21.284Z,19.95
2023-01-25T17:19:23.548Z,22.67
2023-01-25T17:22:25.288Z,23.35
2023-01-25T17:25:27.946Z,21.88
2023-01-25T17:28:29.583Z,21.48
2023-01-25T17:31:33.258Z,22.58
2023-01-25T17:34:34.846Z,22.75
2023-01-25T17:37:40.862Z,22.48
2023-01-25T17:40:42.419Z,22.33
2023-01-25T17:43:44.117Z,23.48
2023-01-25T17:46:46.254Z,22.95
2023-01-25T17:49:47.823Z,21.85
2023-01-25T17:52:49.989Z,22.75
2023-01-25T17:55:51.634Z,22.98
2023-01-25T17:58:53.790Z,23.88
2023-01-25T18:01:55.388Z,27.10
2023-01-25T18:04:57.833Z,26.23
2023-01-25T18:07:59.709Z,27.60
2023-01-25T18:11:01.363Z,25.25
2023-01-25T18:14:08.183Z,25.67
2023-01-25T18:17:09.869Z,24.27
2023-01-25T18:20:11.871Z,23.77
2023-01-25T18:23:13.530Z,27.50
2023-01-25T18:26:20.470Z,24.55
2023-01-25T18:29:35.284Z,26.10
2023-01-25T18:32:36.878Z,26.77
2023-01-25T18:35:38.555Z,26.35
2023-01-25T18:38:40.454Z,27.83
2023-01-25T18:41:44.504Z,26.55
2023-01-25T18:47:50.102Z,29.47
2023-01-25T18:50:51.772Z,28.02
2023-01-25T18:53:53.741Z,25.90
2023-01-25T18:56:55.452Z,26.83
2023-01-25T18:59:58.955Z,26.85
2023-01-25T19:03:01.315Z,27.15
2023-01-25T19:06:03.322Z,27.67
2023-01-25T19:09:04.986Z,26.40
2023-01-25T19:12:06.871Z,27.90
2023-01-25T19:15:09.129Z,27.42
2023-01-25T19:18:10.896Z,28.23
2023-01-25T19:21:24.731Z,29.25
2023-01-25T19:24:27.069Z,27.92
2023-01-25T19:27:30.570Z,30.70
2023-01-25T19:30:32.463Z,28.55
2023-01-25T19:33:34.382Z,27.63
2023-01-25T19:36:38.095Z,29.50
2023-01-25T19:39:39.746Z,28.50
2023-01-25T19:42:41.231Z,29.13
2023-01-25T19:45:42.707Z,29.27
2023-01-25T19:48:47.667Z,31.58
2023-01-25T19:51:53.051Z,30.70
2023-01-25T19:54:54.851Z,31.45
2023-01-25T19:57:56.472Z,31.27
2023-01-25T20:01:12.624Z,31.27
2023-01-25T20:04:19.598Z,29.77
2023-01-25T20:07:22.313Z,30.10
2023-01-25T20:10:23.852Z,32.00
2023-01-25T20:13:25.714Z,30.45
2023-01-25T20:16:28.843Z,31.00
2023-01-25T20:19:30.539Z,28.80
2023-01-25T20:22:32.085Z,31.27
2023-01-25T20:25:33.591Z,28.15
2023-01-25T20:28:35.998Z,29.17
2023-01-25T20:31:41.195Z,32.05
2023-01-25T20:34:43.953Z,31.08
2023-01-25T20:37:50.753Z,29.38
2023-01-25T20:40:52.338Z,33.08
2023-01-25T20:44:04.333Z,30.45
2023-01-25T20:47:05.938Z,28.55
2023-01-25T20:50:09.612Z,29.77
2023-01-25T20:53:12.576Z,34.65
2023-01-25T20:56:16.160Z,33.78
2023-01-25T20:59:19.095Z,31.20
2023-01-25T21:02:20.841Z,31.50
2023-01-25T21:05:22.473Z,29.90
2023-01-25T21:08:25.419Z,31.17
2023-01-25T21:11:27.097Z,30.52
2023-01-25T21:14:28.578Z,30.90
2023-01-25T21:17:30.771Z,30.60
2023-01-25T21:20:32.348Z,33.15
2023-01-25T21:23:35.040Z,30.17
2023-01-25T21:26:37.952Z,30.15
2023-01-25T21:29:39.525Z,28.88
2023-01-25T21:32:41.391Z,30.60
2023-01-25T21:35:43.356Z,28.88
2023-01-25T21:38:47.323Z,29.83
2023-01-25T21:41:48.859Z,29.27
2023-01-25T21:45:09.219Z,28.77
2023-01-25T21:48:10.957Z,28.27
2023-01-25T21:51:31.339Z,28.75
2023-01-25T21:54:35.495Z,28.63
2023-01-25T22:00:38.433Z,30.42
2023-01-25T22:03:40.055Z,31.63
2023-01-25T22:06:41.980Z,29.65
2023-01-25T22:09:43.564Z,28.38
2023-01-25T22:12:45.743Z,29.88
2023-01-25T22:15:47.309Z,30.45
2023-01-25T22:18:49.585Z,29.65
2023-01-25T22:21:51.097Z,28.90
2023-01-25T22:24:52.755Z,28.67
2023-01-25T22:27:59.806Z,30.17
2023-01-25T22:31:01.868Z,26.38
2023-01-25T22:34:04.041Z,29.52
2023-01-25T22:37:05.617Z,28.08
2023-01-25T22:40:07.973Z,29.33
2023-01-25T22:43:09.604Z,29.77
2023-01-25T22:46:16.392Z,27.90
2023-01-25T22:49:18.131Z,26.00
2023-01-25T22:52:19.789Z,28.48
2023-01-25T22:55:21.383Z,29.83
2023-01-25T22:58:22.893Z,29.88
2023-01-25T23:01:27.380Z,28.00
2023-01-25T23:04:29.119Z,29.50
2023-01-25T23:07:30.765Z,28.10
2023-01-25T23:10:32.349Z,27.67
2023-01-25T23:13:34.316Z,28.25
2023-01-25T23:16:36.367Z,30.48
2023-01-25T23:19:37.881Z,27.25
2023-01-25T23:22:40.154Z,27.88
2023-01-25T23:25:41.705Z,29.15
2023-01-25T23:28:43.696Z,29.17
2023-01-25T23:31:45.342Z,27.80
2023-01-25T23:34:53.113Z,28.00
2023-01-25T23:37:54.747Z,30.13
2023-01-25T23:41:01.147Z,32.53
2023-01-25T23:44:02.773Z,27.30
2023-01-25T23:47:04.461Z,27.40
2023-01-25T23:50:06.793Z,28.02
2023-01-25T23:53:08.318Z,28.30
2023-01-25T23:56:12.736Z,27.67
2023-01-25T23:59:14.343Z,28.95
